Terminal Aerodrome Forecast
Issued by NWS Wilmington, NC

Home | Current Version | Previous Version | Text Only | Print | Product List | Glossary On
Versions: 1 2 3 4 5 6 7 8 9 10 11 12 13 14
000
FTUS42 KILM 220500
TAFLBT
TAF
KLBT 220520Z 2206/2306 23006KT P6SM VCSH BKN100
     FM220800 31005KT P6SM VCSH SCT050 BKN100
     FM221200 01009KT P6SM VCSH BKN050 BKN100=

USA.gov is the U.S. government's official web portal to all federal, state and local government web resources and services.